createdAt,value
2023-04-17T00:01:07.988Z,31.42
2023-04-17T00:03:36.385Z,31.70
2023-04-17T00:06:05.305Z,36.60
2023-04-17T00:08:33.911Z,32.38
2023-04-17T00:11:07.730Z,32.75
2023-04-17T00:13:38.052Z,32.03
2023-04-17T00:16:06.980Z,33.67
2023-04-17T00:18:35.448Z,30.40
2023-04-17T00:21:03.698Z,34.35
2023-04-17T00:23:31.893Z,32.28
2023-04-17T00:26:00.163Z,28.75
2023-04-17T00:28:28.453Z,28.98
2023-04-17T00:30:58.932Z,31.88
2023-04-17T00:33:27.134Z,31.20
2023-04-17T00:35:55.487Z,29.75
2023-04-17T00:38:23.740Z,30.17
2023-04-17T00:40:52.598Z,31.33
2023-04-17T00:43:20.869Z,34.25
2023-04-17T00:45:49.492Z,34.65
2023-04-17T00:48:21.025Z,34.53
2023-04-17T00:50:49.449Z,31.70
2023-04-17T00:53:18.378Z,34.22
2023-04-17T00:55:49.474Z,38.05
2023-04-17T00:58:17.813Z,35.95
2023-04-17T01:00:46.217Z,34.47
2023-04-17T01:03:17.135Z,32.58
2023-04-17T01:05:51.194Z,36.80
2023-04-17T01:08:20.117Z,36.97
2023-04-17T01:10:49.006Z,36.15
2023-04-17T01:13:17.297Z,38.72
2023-04-17T01:15:46.925Z,37.08
2023-04-17T01:18:16.424Z,38.25
2023-04-17T01:20:46.101Z,38.60
2023-04-17T01:23:14.590Z,40.53
2023-04-17T01:25:44.348Z,38.33
2023-04-17T01:28:12.786Z,35.08
2023-04-17T01:30:41.201Z,37.97
2023-04-17T01:33:11.066Z,36.92
2023-04-17T01:35:39.679Z,38.22
2023-04-17T01:38:07.951Z,39.75
2023-04-17T01:40:36.446Z,34.00
2023-04-17T01:43:06.555Z,38.13
2023-04-17T01:45:34.924Z,37.03
2023-04-17T01:48:03.239Z,35.78
2023-04-17T01:50:31.547Z,38.22
2023-04-17T01:53:00.275Z,38.85
2023-04-17T01:55:28.559Z,39.40
2023-04-17T01:57:56.823Z,42.63
2023-04-17T02:00:27.127Z,40.17
2023-04-17T02:02:55.949Z,39.35
2023-04-17T02:05:24.815Z,42.75
2023-04-17T02:07:53.122Z,40.95
2023-04-17T02:10:21.469Z,38.67
2023-04-17T02:12:49.762Z,37.85
2023-04-17T02:15:18.167Z,37.30
2023-04-17T02:17:47.736Z,36.83
2023-04-17T02:20:16.097Z,37.90
2023-04-17T02:22:44.447Z,36.75
2023-04-17T02:25:12.747Z,38.00
2023-04-17T02:27:41.092Z,38.22
2023-04-17T02:30:11.597Z,37.33
2023-04-17T02:32:41.014Z,36.25
2023-04-17T02:35:11.204Z,36.92
2023-04-17T02:37:40.071Z,37.75
2023-04-17T02:40:10.248Z,34.65
2023-04-17T02:42:39.246Z,34.15
2023-04-17T02:45:08.935Z,37.83
2023-04-17T02:47:37.669Z,38.38
2023-04-17T02:50:07.007Z,35.03
2023-04-17T02:52:43.097Z,33.22
2023-04-17T02:55:11.506Z,33.47
2023-04-17T02:57:41.559Z,30.30
2023-04-17T03:00:14.904Z,27.67
2023-04-17T03:02:43.744Z,31.75
2023-04-17T03:05:14.931Z,29.80
2023-04-17T03:07:44.552Z,38.65
2023-04-17T03:10:13.412Z,38.08
2023-04-17T03:12:41.775Z,31.20
2023-04-17T03:15:10.812Z,32.50
2023-04-17T03:17:40.985Z,32.92
2023-04-17T03:20:10.181Z,39.90
2023-04-17T03:22:38.535Z,34.33
2023-04-17T03:25:10.863Z,34.35
2023-04-17T03:27:47.175Z,34.55
2023-04-17T03:30:16.888Z,36.17
2023-04-17T03:32:49.416Z,37.63
2023-04-17T03:35:17.873Z,38.08
2023-04-17T03:37:46.664Z,35.78
2023-04-17T03:40:16.875Z,35.05
2023-04-17T03:42:47.844Z,34.90
2023-04-17T03:45:16.816Z,37.08
2023-04-17T03:47:47.602Z,41.33
2023-04-17T03:50:16.791Z,35.65
2023-04-17T03:52:51.524Z,37.97
2023-04-17T03:55:21.610Z,36.50
2023-04-17T03:57:51.630Z,33.35
2023-04-17T04:00:22.027Z,36.13
2023-04-17T04:02:54.530Z,37.13
2023-04-17T04:05:28.139Z,37.58
2023-04-17T04:07:57.704Z,38.97
2023-04-17T04:10:34.190Z,37.35
2023-04-17T04:13:02.601Z,39.17
2023-04-17T04:15:30.932Z,38.65
2023-04-17T04:18:03.043Z,35.72
2023-04-17T04:20:32.858Z,37.55
2023-04-17T04:23:13.140Z,38.80
2023-04-17T04:25:43.570Z,36.22
2023-04-17T04:28:23.345Z,34.60
2023-04-17T04:30:53.551Z,36.60
2023-04-17T04:33:23.904Z,35.25
2023-04-17T04:35:55.978Z,33.83
2023-04-17T04:38:29.929Z,34.05
2023-04-17T04:41:06.235Z,32.63
2023-04-17T04:43:35.736Z,33.65
2023-04-17T04:46:05.232Z,33.25
2023-04-17T04:48:39.399Z,32.05
2023-04-17T04:51:09.851Z,35.38
2023-04-17T04:53:39.707Z,35.58
2023-04-17T04:56:09.514Z,31.83
2023-04-17T04:58:38.589Z,37.15
2023-04-17T05:01:07.526Z,33.05
2023-04-17T05:03:45.164Z,34.97
2023-04-17T05:06:17.674Z,33.78
2023-04-17T05:08:50.263Z,29.65
2023-04-17T05:11:19.995Z,38.45
2023-04-17T05:13:50.514Z,36.70
2023-04-17T05:16:25.544Z,40.83
2023-04-17T05:18:54.309Z,43.65
2023-04-17T05:21:37.659Z,43.47
2023-04-17T05:24:06.134Z,36.03
2023-04-17T05:26:35.736Z,35.45
2023-04-17T05:29:04.966Z,38.15
2023-04-17T05:31:35.409Z,33.63
2023-04-17T05:34:08.997Z,35.53
2023-04-17T05:36:37.662Z,36.90
2023-04-17T05:39:06.853Z,39.97
2023-04-17T05:41:36.533Z,36.58
2023-04-17T05:44:05.011Z,33.28
2023-04-17T05:46:33.593Z,38.45
2023-04-17T05:49:01.965Z,36.95
2023-04-17T05:51:30.654Z,37.58
2023-04-17T05:53:59.001Z,43.72
2023-04-17T05:56:27.483Z,37.25
2023-04-17T05:58:59.126Z,37.88
2023-04-17T06:01:30.014Z,35.83
2023-04-17T06:03:58.582Z,34.67
2023-04-17T06:06:29.196Z,30.63
2023-04-17T06:08:59.491Z,32.03
2023-04-17T06:11:28.011Z,31.00
2023-04-17T06:13:58.242Z,32.08
2023-04-17T06:16:27.953Z,31.45
2023-04-17T06:18:56.405Z,35.35
2023-04-17T06:21:25.284Z,32.75
2023-04-17T06:23:53.712Z,33.67
2023-04-17T06:26:22.279Z,35.08
2023-04-17T06:28:51.603Z,33.85
2023-04-17T06:31:21.422Z,35.47
2023-04-17T06:33:50.834Z,34.67
2023-04-17T06:36:22.430Z,33.95
2023-04-17T06:38:54.455Z,31.33
2023-04-17T06:41:24.058Z,32.38
2023-04-17T06:43:52.472Z,32.35
2023-04-17T06:46:23.106Z,34.08
2023-04-17T06:48:52.267Z,31.25
2023-04-17T06:51:21.927Z,33.67
2023-04-17T06:53:50.487Z,30.40
2023-04-17T06:56:19.458Z,30.75
2023-04-17T06:58:48.264Z,31.55
2023-04-17T07:01:16.666Z,28.73
2023-04-17T07:03:49.966Z,31.25
2023-04-17T07:06:20.870Z,30.60
2023-04-17T07:08:49.288Z,31.73
2023-04-17T07:11:18.985Z,32.17
2023-04-17T07:13:47.756Z,28.77
2023-04-17T07:16:16.386Z,28.40
2023-04-17T07:18:44.793Z,28.60
2023-04-17T07:21:14.515Z,28.45
2023-04-17T07:23:42.893Z,30.25
2023-04-17T07:26:12.632Z,29.80
2023-04-17T07:28:41.238Z,27.42
2023-04-17T07:31:09.674Z,27.40
2023-04-17T07:33:40.468Z,32.50
2023-04-17T07:36:12.041Z,30.73
2023-04-17T07:38:42.332Z,27.52
2023-04-17T07:41:11.667Z,30.55
2023-04-17T07:43:40.116Z,31.23
2023-04-17T07:46:08.478Z,28.10
2023-04-17T07:48:36.987Z,26.00
2023-04-17T07:51:05.955Z,29.30
2023-04-17T07:53:35.955Z,26.00
2023-04-17T07:56:06.321Z,27.63
2023-04-17T07:58:35.693Z,26.90
2023-04-17T08:01:05.464Z,27.38
2023-04-17T08:03:34.414Z,26.55
2023-04-17T08:06:02.848Z,26.67
2023-04-17T08:08:31.338Z,26.15
2023-04-17T08:10:59.602Z,25.10
2023-04-17T08:13:31.236Z,24.55
2023-04-17T08:16:00.039Z,26.38
2023-04-17T08:18:28.412Z,24.85
2023-04-17T08:20:56.787Z,23.77
2023-04-17T08:23:25.888Z,22.75
2023-04-17T08:25:54.304Z,22.88
2023-04-17T08:28:22.619Z,24.08
2023-04-17T08:30:52.770Z,24.40
2023-04-17T08:33:21.345Z,24.20
2023-04-17T08:35:50.000Z,22.50
2023-04-17T08:38:18.285Z,21.95
2023-04-17T08:40:51.967Z,22.90
2023-04-17T08:43:22.080Z,17.50
2023-04-17T08:45:55.278Z,24.75
2023-04-17T08:48:24.830Z,24.77
2023-04-17T08:50:54.433Z,24.00
2023-04-17T08:53:34.648Z,20.13
2023-04-17T08:56:08.927Z,17.88
2023-04-17T08:58:37.919Z,18.90
2023-04-17T09:01:11.775Z,18.92
2023-04-17T09:03:43.373Z,17.75
2023-04-17T09:06:12.702Z,18.25
2023-04-17T09:08:55.474Z,20.45
2023-04-17T09:11:24.075Z,17.15
2023-04-17T09:13:52.427Z,19.00
2023-04-17T09:16:24.499Z,17.48
2023-04-17T09:19:05.481Z,15.75
2023-04-17T09:21:33.879Z,21.08
2023-04-17T09:24:02.315Z,17.33
2023-04-17T09:26:33.262Z,17.10
2023-04-17T09:29:04.767Z,16.65
2023-04-17T09:31:36.193Z,15.75
2023-04-17T09:34:07.425Z,14.60
2023-04-17T09:36:38.281Z,14.35
2023-04-17T09:39:17.248Z,16.27
2023-04-17T09:41:45.749Z,14.50
2023-04-17T09:44:26.880Z,12.40
2023-04-17T09:46:57.585Z,12.98
2023-04-17T09:49:34.840Z,13.48
2023-04-17T09:52:04.421Z,14.52
2023-04-17T09:54:37.900Z,14.52
2023-04-17T09:57:08.940Z,14.10
2023-04-17T09:59:40.602Z,13.50
2023-04-17T10:02:11.574Z,12.88
2023-04-17T10:04:42.125Z,13.85
2023-04-17T10:07:11.044Z,14.35
2023-04-17T10:09:41.480Z,12.13
2023-04-17T10:12:14.473Z,13.70
2023-04-17T10:14:48.323Z,9.20
2023-04-17T10:17:31.744Z,9.93
2023-04-17T10:23:28.830Z,10.10
2023-04-17T10:26:27.129Z,7.80
2023-04-17T10:28:57.659Z,7.43
2023-04-17T10:32:01.354Z,9.48
2023-04-17T10:34:44.029Z,9.68
2023-04-17T10:37:15.515Z,11.30
2023-04-17T10:39:52.577Z,7.90
2023-04-17T10:42:21.782Z,7.50
2023-04-17T10:44:51.049Z,8.48
2023-04-17T10:47:22.392Z,10.05
2023-04-17T10:49:55.017Z,7.72
2023-04-17T10:52:40.372Z,7.13
2023-04-17T10:55:11.066Z,8.38
2023-04-17T10:57:57.296Z,6.60
2023-04-17T11:00:34.084Z,7.53
2023-04-17T11:03:04.135Z,7.35
2023-04-17T11:05:35.541Z,7.43
2023-04-17T11:08:04.208Z,5.45
2023-04-17T11:10:37.163Z,7.25
2023-04-17T11:13:05.587Z,6.40
2023-04-17T11:15:35.562Z,5.90
2023-04-17T11:18:04.997Z,5.03
2023-04-17T11:20:37.316Z,4.40
2023-04-17T11:23:21.346Z,4.07
2023-04-17T11:25:49.693Z,6.05
2023-04-17T11:28:17.925Z,5.65
2023-04-17T11:30:46.351Z,5.13
2023-04-17T11:33:15.918Z,5.80
2023-04-17T11:35:45.735Z,7.45
2023-04-17T11:38:17.761Z,5.88
2023-04-17T11:40:48.726Z,6.22
2023-04-17T11:43:17.608Z,5.70
2023-04-17T11:45:47.831Z,6.65
2023-04-17T11:48:19.530Z,6.00
2023-04-17T11:50:49.439Z,5.70
2023-04-17T11:53:18.757Z,5.65
2023-04-17T11:55:47.670Z,7.75
2023-04-17T11:58:15.922Z,6.18
2023-04-17T12:00:44.340Z,6.97
2023-04-17T12:03:35.676Z,6.90
2023-04-17T12:06:06.669Z,6.30
2023-04-17T12:08:44.791Z,6.53
2023-04-17T12:11:18.058Z,8.05
2023-04-17T12:13:46.386Z,6.97
2023-04-17T12:16:14.633Z,10.32
2023-04-17T12:18:42.865Z,7.25
2023-04-17T12:21:12.633Z,5.50
2023-04-17T12:23:41.660Z,6.72
2023-04-17T12:26:10.426Z,7.45
2023-04-17T12:28:38.845Z,6.40
2023-04-17T12:31:07.395Z,6.63
2023-04-17T12:33:36.875Z,7.65
2023-04-17T12:36:06.411Z,7.28
2023-04-17T12:38:36.024Z,9.15
2023-04-17T12:41:04.490Z,6.05
2023-04-17T12:43:33.441Z,6.78
2023-04-17T12:46:02.178Z,7.30
2023-04-17T12:48:32.704Z,7.53
2023-04-17T12:51:03.081Z,5.93
2023-04-17T12:53:31.305Z,8.50
2023-04-17T12:56:01.088Z,5.72
2023-04-17T12:58:29.495Z,6.22
2023-04-17T13:00:57.914Z,6.32
2023-04-17T13:03:26.447Z,6.15
2023-04-17T13:05:55.048Z,6.95
2023-04-17T13:08:23.254Z,8.15
2023-04-17T13:10:51.590Z,7.13
2023-04-17T13:13:21.080Z,5.70
2023-04-17T13:15:49.672Z,7.13
2023-04-17T13:18:18.063Z,7.38
2023-04-17T13:20:46.431Z,7.47
2023-04-17T13:23:14.780Z,6.47
2023-04-17T13:25:43.101Z,5.43
2023-04-17T13:28:11.632Z,8.15
2023-04-17T13:30:41.353Z,6.20
2023-04-17T13:33:09.684Z,5.60
2023-04-17T13:35:38.070Z,6.75
2023-04-17T13:38:06.351Z,5.93
2023-04-17T13:40:34.765Z,7.53
2023-04-17T13:43:03.009Z,6.97
2023-04-17T13:45:31.330Z,5.97
2023-04-17T13:48:00.942Z,6.78
2023-04-17T13:50:29.467Z,6.07
2023-04-17T13:52:57.648Z,7.85
2023-04-17T13:55:26.021Z,6.75
2023-04-17T13:57:54.237Z,7.32
2023-04-17T14:00:23.107Z,6.60
2023-04-17T14:02:51.443Z,6.07
2023-04-17T14:05:21.299Z,11.10
2023-04-17T14:07:49.636Z,9.57
2023-04-17T14:10:18.166Z,5.05
2023-04-17T14:12:46.397Z,7.60
2023-04-17T14:15:14.745Z,6.30
2023-04-17T14:17:43.346Z,5.88
2023-04-17T14:20:13.002Z,6.93
2023-04-17T14:22:42.513Z,5.15
2023-04-17T14:25:11.271Z,5.68
2023-04-17T14:27:39.869Z,6.07
2023-04-17T14:30:09.687Z,6.13
2023-04-17T14:32:38.378Z,6.47
2023-04-17T14:35:07.595Z,5.13
2023-04-17T14:37:35.825Z,5.40
2023-04-17T14:40:08.200Z,9.55
2023-04-17T14:42:47.347Z,4.82
2023-04-17T14:45:22.181Z,6.13
2023-04-17T14:47:50.657Z,6.50
2023-04-17T14:50:19.160Z,8.38
2023-04-17T14:52:48.176Z,5.25
2023-04-17T14:55:18.409Z,8.50
2023-04-17T14:57:46.808Z,6.32
2023-04-17T15:00:16.980Z,7.05
2023-04-17T15:02:45.958Z,10.57
2023-04-17T15:05:17.607Z,5.57
2023-04-17T15:07:46.887Z,9.30
2023-04-17T15:10:16.912Z,7.68
2023-04-17T15:12:47.676Z,6.55
2023-04-17T15:15:16.834Z,11.98
2023-04-17T15:17:45.554Z,6.35
2023-04-17T15:20:13.805Z,6.18
2023-04-17T15:22:42.285Z,8.68
2023-04-17T15:25:10.889Z,6.90
2023-04-17T15:27:39.386Z,6.10
2023-04-17T15:30:10.822Z,8.90
2023-04-17T15:32:39.222Z,8.27
2023-04-17T15:35:08.549Z,8.93
2023-04-17T15:37:38.798Z,5.18
2023-04-17T15:40:08.974Z,5.28
2023-04-17T15:42:38.352Z,6.22
2023-04-17T15:45:09.968Z,6.32
2023-04-17T15:47:38.895Z,5.88
2023-04-17T15:50:08.653Z,7.20
2023-04-17T15:52:36.884Z,6.40
2023-04-17T15:55:05.697Z,6.85
2023-04-17T15:57:34.103Z,6.45
2023-04-17T16:00:19.608Z,6.30
2023-04-17T16:02:48.077Z,5.95
2023-04-17T16:05:17.210Z,8.75
2023-04-17T16:07:45.882Z,6.80
2023-04-17T16:10:14.737Z,8.88
2023-04-17T16:12:44.140Z,7.25
2023-04-17T16:15:13.292Z,8.63
2023-04-17T16:17:43.184Z,7.88
2023-04-17T16:20:12.284Z,7.28
2023-04-17T16:22:40.982Z,8.07
2023-04-17T16:25:11.901Z,7.13
2023-04-17T16:27:41.271Z,7.72
2023-04-17T16:30:11.045Z,9.63
2023-04-17T16:32:39.392Z,8.52
2023-04-17T16:35:10.037Z,9.98
2023-04-17T16:37:38.422Z,8.85
2023-04-17T16:40:08.121Z,6.85
2023-04-17T16:42:36.423Z,11.18
2023-04-17T16:45:05.346Z,9.73
2023-04-17T16:47:33.706Z,9.32
2023-04-17T16:50:02.446Z,13.05
2023-04-17T16:52:32.044Z,9.35
2023-04-17T16:55:00.828Z,12.90
2023-04-17T16:57:30.970Z,12.93
2023-04-17T16:59:59.313Z,8.93
2023-04-17T17:02:27.678Z,9.38
2023-04-17T17:04:56.085Z,7.63
2023-04-17T17:07:24.271Z,10.60
2023-04-17T17:09:54.119Z,8.77
2023-04-17T17:12:22.627Z,7.03
2023-04-17T17:14:51.073Z,9.52
2023-04-17T17:17:19.344Z,9.63
2023-04-17T17:19:47.718Z,10.68
2023-04-17T17:22:15.949Z,9.02
2023-04-17T17:24:44.258Z,9.90
2023-04-17T17:27:14.699Z,10.63
2023-04-17T17:29:43.067Z,12.02
2023-04-17T17:32:11.443Z,12.88
2023-04-17T17:34:39.851Z,12.40
2023-04-17T17:37:08.057Z,9.77
2023-04-17T17:39:36.420Z,12.38
2023-04-17T17:42:08.609Z,11.98
2023-04-17T17:44:38.591Z,12.05
2023-04-17T17:47:08.145Z,10.65
2023-04-17T17:49:37.172Z,12.32
2023-04-17T17:52:05.719Z,12.63
2023-04-17T17:54:37.017Z,9.57
2023-04-17T17:57:05.494Z,9.23
2023-04-17T17:59:33.974Z,12.18
2023-04-17T18:02:03.637Z,11.85
2023-04-17T18:04:32.138Z,10.00
2023-04-17T18:07:00.802Z,9.63
2023-04-17T18:09:29.237Z,9.95
2023-04-17T18:11:57.680Z,11.15
2023-04-17T18:14:26.037Z,8.20
2023-04-17T18:16:54.535Z,11.73
2023-04-17T18:19:24.330Z,11.90
2023-04-17T18:21:52.557Z,11.75
2023-04-17T18:24:20.959Z,10.35
2023-04-17T18:26:49.266Z,9.88
2023-04-17T18:29:17.619Z,11.98
2023-04-17T18:31:46.021Z,12.05
2023-04-17T18:34:14.460Z,11.25
2023-04-17T18:36:44.075Z,9.55
2023-04-17T18:39:14.641Z,10.20
2023-04-17T18:41:42.978Z,11.52
2023-04-17T18:44:11.346Z,13.23
2023-04-17T18:46:39.772Z,10.25
2023-04-17T18:49:08.751Z,12.23
2023-04-17T18:51:37.532Z,10.85
2023-04-17T18:54:08.561Z,11.35
2023-04-17T18:56:36.919Z,13.50
2023-04-17T18:59:05.244Z,10.80
2023-04-17T19:01:33.510Z,10.73
2023-04-17T19:04:02.559Z,11.02
2023-04-17T19:06:32.235Z,12.25
2023-04-17T19:09:00.536Z,10.43
2023-04-17T19:11:31.012Z,10.07
2023-04-17T19:13:59.687Z,13.60
2023-04-17T19:16:28.530Z,12.27
2023-04-17T19:18:57.548Z,12.98
2023-04-17T19:21:26.726Z,9.93
2023-04-17T19:23:56.450Z,11.10
2023-04-17T19:26:25.386Z,10.82
2023-04-17T19:28:55.350Z,11.00
2023-04-17T19:31:24.018Z,12.77
2023-04-17T19:33:56.027Z,10.95
2023-04-17T19:36:25.194Z,11.32
2023-04-17T19:38:55.442Z,14.68
2023-04-17T19:41:23.725Z,11.55
2023-04-17T19:43:54.030Z,11.68
2023-04-17T19:46:25.476Z,13.20
2023-04-17T19:48:54.790Z,10.10
2023-04-17T19:51:23.379Z,12.68
2023-04-17T19:53:53.617Z,12.80
2023-04-17T19:56:22.290Z,14.07
2023-04-17T19:58:50.774Z,10.60
2023-04-17T20:01:19.883Z,11.27
2023-04-17T20:03:50.088Z,14.15
2023-04-17T20:06:18.429Z,13.80
2023-04-17T20:08:47.356Z,13.35
2023-04-17T20:11:17.708Z,13.43
2023-04-17T20:13:51.633Z,10.70
2023-04-17T20:16:25.427Z,10.70
2023-04-17T20:18:58.644Z,11.02
2023-04-17T20:21:43.575Z,9.65
2023-04-17T20:24:17.123Z,11.18
2023-04-17T20:26:47.985Z,12.77
2023-04-17T20:29:16.895Z,10.93
2023-04-17T20:31:45.588Z,10.95
2023-04-17T20:34:15.580Z,11.10
2023-04-17T20:36:43.863Z,12.15
2023-04-17T20:39:13.412Z,11.88
2023-04-17T20:41:42.216Z,12.35
2023-04-17T20:44:10.531Z,10.60
2023-04-17T20:46:38.881Z,10.95
2023-04-17T20:49:07.487Z,12.73
2023-04-17T20:51:37.484Z,10.13
2023-04-17T20:54:06.850Z,18.27
2023-04-17T20:56:35.590Z,14.68
2023-04-17T20:59:04.172Z,13.23
2023-04-17T21:01:32.616Z,12.75
2023-04-17T21:04:01.057Z,14.95
2023-04-17T21:06:29.291Z,15.27
2023-04-17T21:08:59.056Z,11.57
2023-04-17T21:11:27.707Z,10.77
2023-04-17T21:13:56.009Z,13.73
2023-04-17T21:16:24.995Z,13.38
2023-04-17T21:18:53.873Z,11.50
2023-04-17T21:21:22.061Z,11.10
2023-04-17T21:23:50.326Z,10.52
2023-04-17T21:26:35.995Z,11.52
2023-04-17T21:29:09.223Z,11.80
2023-04-17T21:31:39.862Z,11.40
2023-04-17T21:34:08.839Z,16.63
2023-04-17T21:36:37.100Z,10.05
2023-04-17T21:39:19.924Z,10.90
2023-04-17T21:41:51.011Z,11.30
2023-04-17T21:44:19.506Z,12.40
2023-04-17T21:46:48.041Z,16.90
2023-04-17T21:49:25.214Z,10.10
2023-04-17T21:52:03.639Z,13.05
2023-04-17T21:54:32.067Z,10.98
2023-04-17T21:57:02.384Z,13.63
2023-04-17T21:59:31.725Z,11.25
2023-04-17T22:02:00.613Z,11.68
2023-04-17T22:04:29.088Z,11.48
2023-04-17T22:06:58.048Z,12.25
2023-04-17T22:09:28.446Z,9.48
2023-04-17T22:11:58.648Z,11.65
2023-04-17T22:14:28.314Z,13.25
2023-04-17T22:16:57.209Z,12.23
2023-04-17T22:19:25.666Z,14.73
2023-04-17T22:21:54.302Z,14.63
2023-04-17T22:24:22.896Z,10.60
2023-04-17T22:26:52.161Z,13.90
2023-04-17T22:29:20.501Z,12.65
2023-04-17T22:31:51.679Z,11.73
2023-04-17T22:34:21.185Z,16.45
2023-04-17T22:36:50.729Z,13.15
2023-04-17T22:39:19.026Z,11.48
2023-04-17T22:41:47.215Z,11.30
2023-04-17T22:44:15.546Z,15.18
2023-04-17T22:46:43.978Z,12.02
2023-04-17T22:49:14.732Z,11.07
2023-04-17T22:51:43.759Z,15.98
2023-04-17T22:54:22.118Z,12.52
2023-04-17T22:56:51.592Z,12.55
2023-04-17T22:59:19.843Z,12.32
2023-04-17T23:01:48.086Z,13.95
2023-04-17T23:04:17.771Z,13.93
2023-04-17T23:06:47.276Z,13.07
2023-04-17T23:09:15.798Z,11.55
2023-04-17T23:11:44.094Z,13.05
2023-04-17T23:14:12.730Z,13.13
2023-04-17T23:16:41.104Z,10.07
2023-04-17T23:19:09.403Z,12.48
2023-04-17T23:21:38.902Z,10.75
2023-04-17T23:24:07.957Z,14.80
2023-04-17T23:26:36.132Z,14.50
2023-04-17T23:29:04.465Z,11.93
2023-04-17T23:31:32.778Z,12.80
2023-04-17T23:34:01.253Z,15.27
2023-04-17T23:36:29.582Z,17.30
2023-04-17T23:38:59.320Z,15.30
2023-04-17T23:41:28.152Z,13.90
2023-04-17T23:43:57.251Z,11.55
2023-04-17T23:46:25.703Z,10.98
2023-04-17T23:48:54.065Z,9.82
2023-04-17T23:51:22.399Z,11.15
2023-04-17T23:53:50.912Z,12.23
2023-04-17T23:56:22.508Z,11.50
2023-04-17T23:58:50.945Z,12.00
